sensor_id;sensor_type;location;lat;lon;timestamp;P1;durP1;ratioP1;P2;durP2;ratioP2
1593;SDS011;790;47.000;16.084;2023-06-26T00:01:22;9.27;;;8.47;;
1593;SDS011;790;47.000;16.084;2023-06-26T00:04:02;9.40;;;8.50;;
1593;SDS011;790;47.000;16.084;2023-06-26T00:13:06;9.73;;;8.50;;
1593;SDS011;790;47.000;16.084;2023-06-26T00:15:49;10.40;;;9.53;;
1593;SDS011;790;47.000;16.084;2023-06-26T00:20:59;8.90;;;8.07;;
1593;SDS011;790;47.000;16.084;2023-06-26T00:23:44;9.97;;;9.07;;
1593;SDS011;790;47.000;16.084;2023-06-26T00:28:59;9.80;;;8.93;;
1593;SDS011;790;47.000;16.084;2023-06-26T00:31:41;10.63;;;9.63;;
1593;SDS011;790;47.000;16.084;2023-06-26T00:37:36;9.60;;;8.73;;
1593;SDS011;790;47.000;16.084;2023-06-26T00:40:21;9.37;;;8.43;;
1593;SDS011;790;47.000;16.084;2023-06-26T00:42:54;9.67;;;8.87;;
1593;SDS011;790;47.000;16.084;2023-06-26T00:45:24;9.10;;;8.30;;
1593;SDS011;790;47.000;16.084;2023-06-26T00:48:01;10.20;;;9.30;;
1593;SDS011;790;47.000;16.084;2023-06-26T00:50:47;9.53;;;8.53;;
1593;SDS011;790;47.000;16.084;2023-06-26T00:53:27;10.07;;;9.00;;
1593;SDS011;790;47.000;16.084;2023-06-26T00:56:16;9.53;;;8.73;;
1593;SDS011;790;47.000;16.084;2023-06-26T01:01:16;9.67;;;8.87;;
1593;SDS011;790;47.000;16.084;2023-06-26T01:03:53;10.10;;;9.13;;
1593;SDS011;790;47.000;16.084;2023-06-26T01:06:24;9.43;;;8.57;;
1593;SDS011;790;47.000;16.084;2023-06-26T01:09:03;9.23;;;8.43;;
1593;SDS011;790;47.000;16.084;2023-06-26T01:14:39;9.80;;;9.00;;
1593;SDS011;790;47.000;16.084;2023-06-26T01:17:39;10.03;;;9.13;;
1593;SDS011;790;47.000;16.084;2023-06-26T01:20:47;9.67;;;8.77;;
1593;SDS011;790;47.000;16.084;2023-06-26T01:23:16;9.97;;;9.07;;
1593;SDS011;790;47.000;16.084;2023-06-26T01:25:52;9.50;;;8.70;;
1593;SDS011;790;47.000;16.084;2023-06-26T01:28:54;9.60;;;8.80;;
1593;SDS011;790;47.000;16.084;2023-06-26T01:31:48;9.00;;;8.27;;
1593;SDS011;790;47.000;16.084;2023-06-26T01:34:34;9.80;;;9.00;;
1593;SDS011;790;47.000;16.084;2023-06-26T01:43:08;9.17;;;8.40;;
1593;SDS011;790;47.000;16.084;2023-06-26T01:49:18;9.93;;;9.13;;
1593;SDS011;790;47.000;16.084;2023-06-26T01:52:07;9.97;;;8.90;;
1593;SDS011;790;47.000;16.084;2023-06-26T01:54:47;9.53;;;8.63;;
1593;SDS011;790;47.000;16.084;2023-06-26T01:57:22;9.57;;;8.60;;
1593;SDS011;790;47.000;16.084;2023-06-26T01:59:58;9.63;;;8.73;;
1593;SDS011;790;47.000;16.084;2023-06-26T02:02:50;9.80;;;8.90;;
1593;SDS011;790;47.000;16.084;2023-06-26T02:05:49;9.30;;;8.60;;
1593;SDS011;790;47.000;16.084;2023-06-26T02:11:12;10.20;;;9.23;;
1593;SDS011;790;47.000;16.084;2023-06-26T02:13:50;9.37;;;8.47;;
1593;SDS011;790;47.000;16.084;2023-06-26T02:16:32;9.87;;;8.97;;
1593;SDS011;790;47.000;16.084;2023-06-26T02:22:00;10.17;;;9.17;;
1593;SDS011;790;47.000;16.084;2023-06-26T02:24:38;10.73;;;9.77;;
1593;SDS011;790;47.000;16.084;2023-06-26T02:27:14;10.23;;;9.33;;
1593;SDS011;790;47.000;16.084;2023-06-26T02:30:01;10.60;;;9.17;;
1593;SDS011;790;47.000;16.084;2023-06-26T02:32:32;10.13;;;9.23;;
1593;SDS011;790;47.000;16.084;2023-06-26T02:35:08;10.20;;;9.40;;
1593;SDS011;790;47.000;16.084;2023-06-26T02:37:35;9.40;;;8.50;;
1593;SDS011;790;47.000;16.084;2023-06-26T02:40:03;9.77;;;8.87;;
1593;SDS011;790;47.000;16.084;2023-06-26T02:42:32;9.67;;;8.77;;
1593;SDS011;790;47.000;16.084;2023-06-26T02:45:05;9.50;;;8.70;;
1593;SDS011;790;47.000;16.084;2023-06-26T02:50:58;10.27;;;9.30;;
1593;SDS011;790;47.000;16.084;2023-06-26T02:59:32;10.83;;;9.83;;
1593;SDS011;790;47.000;16.084;2023-06-26T03:02:13;9.87;;;9.07;;
1593;SDS011;790;47.000;16.084;2023-06-26T03:04:48;10.63;;;8.63;;
1593;SDS011;790;47.000;16.084;2023-06-26T03:10:05;11.10;;;9.73;;
1593;SDS011;790;47.000;16.084;2023-06-26T03:15:21;9.60;;;8.70;;
1593;SDS011;790;47.000;16.084;2023-06-26T03:23:13;9.37;;;8.57;;
1593;SDS011;790;47.000;16.084;2023-06-26T03:25:49;10.37;;;9.37;;
1593;SDS011;790;47.000;16.084;2023-06-26T03:28:21;11.00;;;9.27;;
1593;SDS011;790;47.000;16.084;2023-06-26T03:30:50;9.83;;;8.93;;
1593;SDS011;790;47.000;16.084;2023-06-26T03:33:32;10.63;;;9.57;;
1593;SDS011;790;47.000;16.084;2023-06-26T03:36:07;9.50;;;8.70;;
1593;SDS011;790;47.000;16.084;2023-06-26T03:38:44;10.00;;;9.17;;
1593;SDS011;790;47.000;16.084;2023-06-26T03:41:14;10.40;;;9.60;;
1593;SDS011;790;47.000;16.084;2023-06-26T03:44:17;10.63;;;9.73;;
1593;SDS011;790;47.000;16.084;2023-06-26T03:46:52;10.33;;;9.33;;
1593;SDS011;790;47.000;16.084;2023-06-26T03:49:22;10.87;;;9.67;;
1593;SDS011;790;47.000;16.084;2023-06-26T03:52:01;10.70;;;9.60;;
1593;SDS011;790;47.000;16.084;2023-06-26T03:54:38;10.50;;;9.50;;
1593;SDS011;790;47.000;16.084;2023-06-26T03:57:12;11.03;;;10.03;;
1593;SDS011;790;47.000;16.084;2023-06-26T03:59:47;10.40;;;9.50;;
1593;SDS011;790;47.000;16.084;2023-06-26T04:02:29;12.43;;;10.83;;
1593;SDS011;790;47.000;16.084;2023-06-26T04:05:04;11.50;;;10.50;;
1593;SDS011;790;47.000;16.084;2023-06-26T04:13:21;12.97;;;11.67;;
1593;SDS011;790;47.000;16.084;2023-06-26T04:16:06;12.40;;;11.20;;
1593;SDS011;790;47.000;16.084;2023-06-26T04:18:44;14.50;;;13.00;;
1593;SDS011;790;47.000;16.084;2023-06-26T04:21:23;15.80;;;12.73;;
1593;SDS011;790;47.000;16.084;2023-06-26T04:24:00;13.77;;;12.10;;
1593;SDS011;790;47.000;16.084;2023-06-26T04:26:32;13.40;;;12.03;;
1593;SDS011;790;47.000;16.084;2023-06-26T04:29:00;14.40;;;12.90;;
1593;SDS011;790;47.000;16.084;2023-06-26T04:31:30;13.53;;;12.33;;
1593;SDS011;790;47.000;16.084;2023-06-26T04:34:02;15.73;;;14.00;;
1593;SDS011;790;47.000;16.084;2023-06-26T04:39:22;15.30;;;13.80;;
1593;SDS011;790;47.000;16.084;2023-06-26T04:42:07;15.40;;;13.73;;
1593;SDS011;790;47.000;16.084;2023-06-26T04:44:44;16.37;;;14.53;;
1593;SDS011;790;47.000;16.084;2023-06-26T04:47:12;18.60;;;13.40;;
1593;SDS011;790;47.000;16.084;2023-06-26T04:49:44;16.23;;;14.63;;
1593;SDS011;790;47.000;16.084;2023-06-26T04:52:45;20.10;;;17.00;;
1593;SDS011;790;47.000;16.084;2023-06-26T04:55:29;20.77;;;18.57;;
1593;SDS011;790;47.000;16.084;2023-06-26T05:01:11;17.70;;;15.80;;
1593;SDS011;790;47.000;16.084;2023-06-26T05:03:41;16.17;;;14.57;;
1593;SDS011;790;47.000;16.084;2023-06-26T05:06:13;14.87;;;13.43;;
1593;SDS011;790;47.000;16.084;2023-06-26T05:08:54;14.57;;;13.07;;
1593;SDS011;790;47.000;16.084;2023-06-26T05:11:38;14.17;;;12.67;;
1593;SDS011;790;47.000;16.084;2023-06-26T05:14:05;14.37;;;12.97;;
1593;SDS011;790;47.000;16.084;2023-06-26T05:16:37;13.17;;;11.93;;
1593;SDS011;790;47.000;16.084;2023-06-26T05:19:05;12.67;;;11.47;;
1593;SDS011;790;47.000;16.084;2023-06-26T05:21:34;12.75;;;11.48;;
1593;SDS011;790;47.000;16.084;2023-06-26T05:24:02;12.52;;;11.32;;
1593;SDS011;790;47.000;16.084;2023-06-26T05:26:31;12.10;;;10.90;;
1593;SDS011;790;47.000;16.084;2023-06-26T05:29:05;12.27;;;11.20;;
1593;SDS011;790;47.000;16.084;2023-06-26T05:31:33;11.20;;;10.18;;
1593;SDS011;790;47.000;16.084;2023-06-26T05:34:23;12.23;;;11.02;;
1593;SDS011;790;47.000;16.084;2023-06-26T05:36:55;14.10;;;11.05;;
1593;SDS011;790;47.000;16.084;2023-06-26T05:39:24;12.05;;;10.95;;
1593;SDS011;790;47.000;16.084;2023-06-26T05:41:55;12.60;;;11.15;;
1593;SDS011;790;47.000;16.084;2023-06-26T05:44:41;12.40;;;10.52;;
1593;SDS011;790;47.000;16.084;2023-06-26T05:47:18;15.32;;;11.18;;
1593;SDS011;790;47.000;16.084;2023-06-26T05:49:49;11.95;;;10.82;;
1593;SDS011;790;47.000;16.084;2023-06-26T05:52:19;11.90;;;10.70;;
1593;SDS011;790;47.000;16.084;2023-06-26T05:54:47;11.15;;;10.15;;
1593;SDS011;790;47.000;16.084;2023-06-26T05:57:15;11.40;;;10.30;;
1593;SDS011;790;47.000;16.084;2023-06-26T05:59:49;11.88;;;10.00;;
1593;SDS011;790;47.000;16.084;2023-06-26T06:02:16;11.20;;;10.20;;
1593;SDS011;790;47.000;16.084;2023-06-26T06:05:00;11.48;;;10.48;;
1593;SDS011;790;47.000;16.084;2023-06-26T06:07:36;10.55;;;9.60;;
1593;SDS011;790;47.000;16.084;2023-06-26T06:10:04;12.43;;;10.40;;
1593;SDS011;790;47.000;16.084;2023-06-26T06:12:32;11.27;;;10.20;;
1593;SDS011;790;47.000;16.084;2023-06-26T06:15:05;11.15;;;10.25;;
1593;SDS011;790;47.000;16.084;2023-06-26T06:17:35;11.05;;;9.93;;
1593;SDS011;790;47.000;16.084;2023-06-26T06:20:10;10.63;;;9.73;;
1593;SDS011;790;47.000;16.084;2023-06-26T06:22:38;10.23;;;9.35;;
1593;SDS011;790;47.000;16.084;2023-06-26T06:27:44;10.48;;;9.48;;
1593;SDS011;790;47.000;16.084;2023-06-26T06:30:21;10.35;;;9.45;;
1593;SDS011;790;47.000;16.084;2023-06-26T06:32:51;9.82;;;8.95;;
1593;SDS011;790;47.000;16.084;2023-06-26T06:35:22;8.82;;;8.02;;
1593;SDS011;790;47.000;16.084;2023-06-26T06:37:59;9.73;;;8.82;;
1593;SDS011;790;47.000;16.084;2023-06-26T06:40:29;8.88;;;7.97;;
1593;SDS011;790;47.000;16.084;2023-06-26T06:45:28;9.15;;;7.88;;
1593;SDS011;790;47.000;16.084;2023-06-26T06:47:57;8.27;;;7.57;;
1593;SDS011;790;47.000;16.084;2023-06-26T06:50:40;8.55;;;7.80;;
1593;SDS011;790;47.000;16.084;2023-06-26T06:53:13;8.88;;;8.07;;
1593;SDS011;790;47.000;16.084;2023-06-26T06:55:43;9.30;;;8.40;;
1593;SDS011;790;47.000;16.084;2023-06-26T06:58:35;9.05;;;7.85;;
1593;SDS011;790;47.000;16.084;2023-06-26T07:01:17;9.18;;;8.32;;
1593;SDS011;790;47.000;16.084;2023-06-26T07:03:58;8.48;;;7.68;;
1593;SDS011;790;47.000;16.084;2023-06-26T07:06:27;9.90;;;7.78;;
1593;SDS011;790;47.000;16.084;2023-06-26T07:09:03;10.55;;;8.73;;
1593;SDS011;790;47.000;16.084;2023-06-26T07:11:32;9.32;;;8.45;;
1593;SDS011;790;47.000;16.084;2023-06-26T07:14:07;8.77;;;7.97;;
1593;SDS011;790;47.000;16.084;2023-06-26T07:16:36;8.20;;;7.55;;
1593;SDS011;790;47.000;16.084;2023-06-26T07:19:10;9.00;;;8.30;;
1593;SDS011;790;47.000;16.084;2023-06-26T07:21:49;8.85;;;7.53;;
1593;SDS011;790;47.000;16.084;2023-06-26T07:24:23;8.27;;;7.47;;
1593;SDS011;790;47.000;16.084;2023-06-26T07:26:58;9.07;;;8.27;;
1593;SDS011;790;47.000;16.084;2023-06-26T07:29:27;8.95;;;8.05;;
1593;SDS011;790;47.000;16.084;2023-06-26T07:31:58;8.40;;;7.70;;
1593;SDS011;790;47.000;16.084;2023-06-26T07:34:48;8.65;;;7.93;;
1593;SDS011;790;47.000;16.084;2023-06-26T07:37:57;8.48;;;7.65;;
1593;SDS011;790;47.000;16.084;2023-06-26T07:40:25;8.15;;;7.45;;
1593;SDS011;790;47.000;16.084;2023-06-26T07:43:00;7.47;;;6.90;;
1593;SDS011;790;47.000;16.084;2023-06-26T07:45:27;9.38;;;8.57;;
1593;SDS011;790;47.000;16.084;2023-06-26T07:47:55;8.95;;;7.90;;
1593;SDS011;790;47.000;16.084;2023-06-26T07:50:26;11.20;;;9.00;;
1593;SDS011;790;47.000;16.084;2023-06-26T07:52:56;8.73;;;7.88;;
1593;SDS011;790;47.000;16.084;2023-06-26T07:55:24;9.05;;;8.07;;
1593;SDS011;790;47.000;16.084;2023-06-26T07:57:53;8.27;;;7.57;;
1593;SDS011;790;47.000;16.084;2023-06-26T08:00:37;8.55;;;7.75;;
1593;SDS011;790;47.000;16.084;2023-06-26T08:03:15;8.07;;;7.32;;
1593;SDS011;790;47.000;16.084;2023-06-26T08:05:50;8.02;;;7.32;;
1593;SDS011;790;47.000;16.084;2023-06-26T08:08:33;8.20;;;7.50;;
1593;SDS011;790;47.000;16.084;2023-06-26T08:11:15;7.18;;;6.63;;
1593;SDS011;790;47.000;16.084;2023-06-26T08:13:50;7.25;;;6.65;;
1593;SDS011;790;47.000;16.084;2023-06-26T08:16:19;7.40;;;6.80;;
1593;SDS011;790;47.000;16.084;2023-06-26T08:19:00;6.80;;;6.30;;
1593;SDS011;790;47.000;16.084;2023-06-26T08:21:28;6.68;;;6.25;;
1593;SDS011;790;47.000;16.084;2023-06-26T08:23:57;7.53;;;6.93;;
1593;SDS011;790;47.000;16.084;2023-06-26T08:26:24;7.70;;;7.10;;
1593;SDS011;790;47.000;16.084;2023-06-26T08:28:52;8.18;;;7.47;;
1593;SDS011;790;47.000;16.084;2023-06-26T08:31:20;7.38;;;6.78;;
1593;SDS011;790;47.000;16.084;2023-06-26T08:33:50;7.93;;;7.20;;
1593;SDS011;790;47.000;16.084;2023-06-26T08:36:18;6.75;;;6.32;;
1593;SDS011;790;47.000;16.084;2023-06-26T08:38:48;7.60;;;7.00;;
1593;SDS011;790;47.000;16.084;2023-06-26T08:41:32;7.07;;;6.57;;
1593;SDS011;790;47.000;16.084;2023-06-26T08:44:02;7.13;;;6.53;;
1593;SDS011;790;47.000;16.084;2023-06-26T08:46:31;7.80;;;7.10;;
1593;SDS011;790;47.000;16.084;2023-06-26T08:49:01;7.32;;;6.63;;
1593;SDS011;790;47.000;16.084;2023-06-26T08:51:37;7.65;;;7.00;;
1593;SDS011;790;47.000;16.084;2023-06-26T08:54:10;6.80;;;6.30;;
1593;SDS011;790;47.000;16.084;2023-06-26T08:56:46;6.68;;;6.18;;
1593;SDS011;790;47.000;16.084;2023-06-26T08:59:16;7.32;;;6.63;;
1593;SDS011;790;47.000;16.084;2023-06-26T09:01:59;6.88;;;6.28;;
1593;SDS011;790;47.000;16.084;2023-06-26T09:04:27;7.43;;;6.70;;
1593;SDS011;790;47.000;16.084;2023-06-26T09:06:56;7.03;;;6.13;;
1593;SDS011;790;47.000;16.084;2023-06-26T09:09:24;7.60;;;6.90;;
1593;SDS011;790;47.000;16.084;2023-06-26T09:12:00;6.80;;;6.30;;
1593;SDS011;790;47.000;16.084;2023-06-26T09:14:30;6.55;;;5.97;;
1593;SDS011;790;47.000;16.084;2023-06-26T09:16:58;6.35;;;5.80;;
1593;SDS011;790;47.000;16.084;2023-06-26T09:19:29;6.15;;;5.75;;
1593;SDS011;790;47.000;16.084;2023-06-26T09:22:04;6.35;;;5.85;;
1593;SDS011;790;47.000;16.084;2023-06-26T09:24:37;5.50;;;5.07;;
1593;SDS011;790;47.000;16.084;2023-06-26T09:27:08;5.63;;;5.00;;
1593;SDS011;790;47.000;16.084;2023-06-26T09:29:36;5.57;;;5.18;;
1593;SDS011;790;47.000;16.084;2023-06-26T09:32:08;5.45;;;5.07;;
1593;SDS011;790;47.000;16.084;2023-06-26T09:34:41;5.80;;;5.30;;
1593;SDS011;790;47.000;16.084;2023-06-26T09:37:26;5.75;;;5.35;;
1593;SDS011;790;47.000;16.084;2023-06-26T09:39:56;5.65;;;5.25;;
1593;SDS011;790;47.000;16.084;2023-06-26T09:42:30;7.78;;;5.75;;
1593;SDS011;790;47.000;16.084;2023-06-26T09:44:59;5.90;;;5.40;;
1593;SDS011;790;47.000;16.084;2023-06-26T09:47:29;6.82;;;5.90;;
1593;SDS011;790;47.000;16.084;2023-06-26T09:53:12;9.23;;;6.00;;
1593;SDS011;790;47.000;16.084;2023-06-26T09:55:44;6.22;;;5.72;;
1593;SDS011;790;47.000;16.084;2023-06-26T10:01:05;6.50;;;5.93;;
1593;SDS011;790;47.000;16.084;2023-06-26T10:03:47;7.05;;;6.07;;
1593;SDS011;790;47.000;16.084;2023-06-26T10:06:15;7.22;;;6.63;;
1593;SDS011;790;47.000;16.084;2023-06-26T10:08:50;6.30;;;5.75;;
1593;SDS011;790;47.000;16.084;2023-06-26T10:11:34;6.30;;;5.80;;
1593;SDS011;790;47.000;16.084;2023-06-26T10:17:24;7.18;;;6.65;;
1593;SDS011;790;47.000;16.084;2023-06-26T10:20:18;7.15;;;6.55;;
1593;SDS011;790;47.000;16.084;2023-06-26T10:22:48;6.55;;;6.05;;
1593;SDS011;790;47.000;16.084;2023-06-26T10:25:34;6.82;;;6.22;;
1593;SDS011;790;47.000;16.084;2023-06-26T10:28:09;6.55;;;5.97;;
1593;SDS011;790;47.000;16.084;2023-06-26T10:31:00;6.70;;;6.10;;
1593;SDS011;790;47.000;16.084;2023-06-26T10:33:38;6.65;;;6.07;;
1593;SDS011;790;47.000;16.084;2023-06-26T10:36:20;6.65;;;5.85;;
1593;SDS011;790;47.000;16.084;2023-06-26T10:39:14;6.60;;;6.05;;
1593;SDS011;790;47.000;16.084;2023-06-26T10:42:07;8.65;;;6.30;;
1593;SDS011;790;47.000;16.084;2023-06-26T10:44:45;6.95;;;6.05;;
1593;SDS011;790;47.000;16.084;2023-06-26T10:47:45;6.50;;;6.00;;
1593;SDS011;790;47.000;16.084;2023-06-26T10:50:43;6.25;;;5.85;;
1593;SDS011;790;47.000;16.084;2023-06-26T10:56:00;6.38;;;5.82;;
1593;SDS011;790;47.000;16.084;2023-06-26T10:58:44;6.43;;;6.00;;
1593;SDS011;790;47.000;16.084;2023-06-26T11:01:25;6.13;;;5.72;;
1593;SDS011;790;47.000;16.084;2023-06-26T11:04:09;6.57;;;5.97;;
1593;SDS011;790;47.000;16.084;2023-06-26T11:09:55;6.72;;;6.18;;
1593;SDS011;790;47.000;16.084;2023-06-26T11:12:37;6.30;;;5.78;;
1593;SDS011;790;47.000;16.084;2023-06-26T11:15:09;6.68;;;6.18;;
1593;SDS011;790;47.000;16.084;2023-06-26T11:17:40;6.65;;;6.05;;
1593;SDS011;790;47.000;16.084;2023-06-26T11:20:19;7.10;;;6.50;;
1593;SDS011;790;47.000;16.084;2023-06-26T11:23:04;6.80;;;6.30;;
1593;SDS011;790;47.000;16.084;2023-06-26T11:28:52;5.95;;;5.45;;
1593;SDS011;790;47.000;16.084;2023-06-26T11:31:35;6.22;;;5.82;;
1593;SDS011;790;47.000;16.084;2023-06-26T11:34:08;6.25;;;5.85;;
1593;SDS011;790;47.000;16.084;2023-06-26T11:37:11;7.00;;;5.63;;
1593;SDS011;790;47.000;16.084;2023-06-26T11:39:44;5.97;;;5.47;;
1593;SDS011;790;47.000;16.084;2023-06-26T11:42:38;6.45;;;5.95;;
1593;SDS011;790;47.000;16.084;2023-06-26T11:45:09;5.75;;;5.35;;
1593;SDS011;790;47.000;16.084;2023-06-26T11:47:50;6.45;;;5.95;;
1593;SDS011;790;47.000;16.084;2023-06-26T11:50:33;6.75;;;6.15;;
1593;SDS011;790;47.000;16.084;2023-06-26T11:53:19;6.00;;;5.47;;
1593;SDS011;790;47.000;16.084;2023-06-26T11:56:06;7.05;;;6.22;;
1593;SDS011;790;47.000;16.084;2023-06-26T12:01:47;5.70;;;5.30;;
1593;SDS011;790;47.000;16.084;2023-06-26T12:04:34;6.55;;;6.05;;
1593;SDS011;790;47.000;16.084;2023-06-26T12:07:16;6.55;;;6.00;;
1593;SDS011;790;47.000;16.084;2023-06-26T12:09:49;6.38;;;5.88;;
1593;SDS011;790;47.000;16.084;2023-06-26T12:12:38;6.55;;;6.07;;
1593;SDS011;790;47.000;16.084;2023-06-26T12:15:12;6.10;;;5.65;;
1593;SDS011;790;47.000;16.084;2023-06-26T12:17:44;6.22;;;5.72;;
1593;SDS011;790;47.000;16.084;2023-06-26T12:20:20;5.47;;;5.10;;
1593;SDS011;790;47.000;16.084;2023-06-26T12:23:11;6.38;;;5.88;;
1593;SDS011;790;47.000;16.084;2023-06-26T12:25:45;6.15;;;5.75;;
1593;SDS011;790;47.000;16.084;2023-06-26T12:28:18;6.10;;;5.70;;
1593;SDS011;790;47.000;16.084;2023-06-26T12:34:08;6.43;;;5.95;;
1593;SDS011;790;47.000;16.084;2023-06-26T12:36:40;6.22;;;5.72;;
1593;SDS011;790;47.000;16.084;2023-06-26T12:39:44;6.43;;;5.93;;
1593;SDS011;790;47.000;16.084;2023-06-26T12:42:22;5.95;;;5.45;;
1593;SDS011;790;47.000;16.084;2023-06-26T12:44:50;5.70;;;5.30;;
1593;SDS011;790;47.000;16.084;2023-06-26T12:47:32;6.35;;;5.75;;
1593;SDS011;790;47.000;16.084;2023-06-26T12:50:04;5.90;;;5.40;;
1593;SDS011;790;47.000;16.084;2023-06-26T12:52:45;6.22;;;5.78;;
1593;SDS011;790;47.000;16.084;2023-06-26T12:58:07;5.55;;;5.13;;
1593;SDS011;790;47.000;16.084;2023-06-26T13:03:37;6.05;;;5.53;;
1593;SDS011;790;47.000;16.084;2023-06-26T13:06:23;6.53;;;5.95;;
1593;SDS011;790;47.000;16.084;2023-06-26T13:09:12;6.75;;;6.10;;
1593;SDS011;790;47.000;16.084;2023-06-26T13:12:03;5.68;;;5.28;;
1593;SDS011;790;47.000;16.084;2023-06-26T13:14:47;6.07;;;5.60;;
1593;SDS011;790;47.000;16.084;2023-06-26T13:17:44;6.38;;;5.90;;
1593;SDS011;790;47.000;16.084;2023-06-26T13:20:30;6.05;;;5.65;;
1593;SDS011;790;47.000;16.084;2023-06-26T13:23:14;6.53;;;5.47;;
1593;SDS011;790;47.000;16.084;2023-06-26T13:25:59;6.05;;;5.55;;
1593;SDS011;790;47.000;16.084;2023-06-26T13:28:32;6.10;;;5.53;;
1593;SDS011;790;47.000;16.084;2023-06-26T13:31:22;5.57;;;5.07;;
1593;SDS011;790;47.000;16.084;2023-06-26T13:33:57;6.35;;;5.75;;
1593;SDS011;790;47.000;16.084;2023-06-26T13:39:22;6.53;;;6.03;;
1593;SDS011;790;47.000;16.084;2023-06-26T13:44:37;6.75;;;5.40;;
1593;SDS011;790;47.000;16.084;2023-06-26T13:47:26;7.32;;;5.90;;
1593;SDS011;790;47.000;16.084;2023-06-26T13:56:08;6.22;;;5.82;;
1593;SDS011;790;47.000;16.084;2023-06-26T13:58:54;6.38;;;5.97;;
1593;SDS011;790;47.000;16.084;2023-06-26T14:01:45;5.95;;;5.45;;
1593;SDS011;790;47.000;16.084;2023-06-26T14:04:12;6.68;;;6.07;;
1593;SDS011;790;47.000;16.084;2023-06-26T14:06:54;6.68;;;5.95;;
1593;SDS011;790;47.000;16.084;2023-06-26T14:09:45;6.80;;;6.10;;
1593;SDS011;790;47.000;16.084;2023-06-26T14:12:21;6.05;;;5.65;;
1593;SDS011;790;47.000;16.084;2023-06-26T14:14:54;6.82;;;5.78;;
1593;SDS011;790;47.000;16.084;2023-06-26T14:17:35;7.28;;;5.95;;
1593;SDS011;790;47.000;16.084;2023-06-26T14:20:08;6.43;;;6.03;;
1593;SDS011;790;47.000;16.084;2023-06-26T14:22:38;6.35;;;5.72;;
1593;SDS011;790;47.000;16.084;2023-06-26T14:30:57;6.82;;;6.13;;
1593;SDS011;790;47.000;16.084;2023-06-26T14:33:25;6.28;;;5.75;;
1593;SDS011;790;47.000;16.084;2023-06-26T14:36:08;7.18;;;6.13;;
1593;SDS011;790;47.000;16.084;2023-06-26T14:38:36;6.60;;;6.10;;
1593;SDS011;790;47.000;16.084;2023-06-26T14:41:08;6.50;;;5.90;;
1593;SDS011;790;47.000;16.084;2023-06-26T14:43:38;7.40;;;6.68;;
1593;SDS011;790;47.000;16.084;2023-06-26T14:49:12;6.75;;;6.15;;
1593;SDS011;790;47.000;16.084;2023-06-26T14:51:41;6.40;;;5.80;;
1593;SDS011;790;47.000;16.084;2023-06-26T14:54:25;6.18;;;5.78;;
1593;SDS011;790;47.000;16.084;2023-06-26T14:57:00;5.97;;;5.47;;
1593;SDS011;790;47.000;16.084;2023-06-26T14:59:30;6.30;;;5.80;;
1593;SDS011;790;47.000;16.084;2023-06-26T15:02:09;6.05;;;5.55;;
1593;SDS011;790;47.000;16.084;2023-06-26T15:04:47;5.90;;;5.40;;
1593;SDS011;790;47.000;16.084;2023-06-26T15:07:24;5.78;;;5.38;;
1593;SDS011;790;47.000;16.084;2023-06-26T15:09:59;6.20;;;5.72;;
1593;SDS011;790;47.000;16.084;2023-06-26T15:12:35;5.78;;;5.38;;
1593;SDS011;790;47.000;16.084;2023-06-26T15:18:02;5.90;;;5.50;;
1593;SDS011;790;47.000;16.084;2023-06-26T15:20:33;6.35;;;5.95;;
1593;SDS011;790;47.000;16.084;2023-06-26T15:23:08;6.22;;;5.72;;
1593;SDS011;790;47.000;16.084;2023-06-26T15:26:00;5.88;;;5.47;;
1593;SDS011;790;47.000;16.084;2023-06-26T15:28:38;5.75;;;5.35;;
1593;SDS011;790;47.000;16.084;2023-06-26T15:31:13;5.78;;;5.43;;
1593;SDS011;790;47.000;16.084;2023-06-26T15:33:58;5.45;;;5.15;;
1593;SDS011;790;47.000;16.084;2023-06-26T15:36:51;6.10;;;5.70;;
1593;SDS011;790;47.000;16.084;2023-06-26T15:39:20;6.05;;;5.65;;
1593;SDS011;790;47.000;16.084;2023-06-26T15:41:59;6.22;;;5.72;;
1593;SDS011;790;47.000;16.084;2023-06-26T15:44:29;5.78;;;5.38;;
1593;SDS011;790;47.000;16.084;2023-06-26T15:47:07;5.75;;;5.35;;
1593;SDS011;790;47.000;16.084;2023-06-26T15:49:36;6.47;;;5.85;;
1593;SDS011;790;47.000;16.084;2023-06-26T15:52:05;5.97;;;5.53;;
1593;SDS011;790;47.000;16.084;2023-06-26T15:54:36;5.68;;;5.22;;
1593;SDS011;790;47.000;16.084;2023-06-26T15:57:05;5.82;;;5.32;;
1593;SDS011;790;47.000;16.084;2023-06-26T16:00:19;6.18;;;5.75;;
1593;SDS011;790;47.000;16.084;2023-06-26T16:05:45;5.82;;;5.43;;
1593;SDS011;790;47.000;16.084;2023-06-26T16:08:13;5.60;;;5.28;;
1593;SDS011;790;47.000;16.084;2023-06-26T16:10:53;6.13;;;5.65;;
1593;SDS011;790;47.000;16.084;2023-06-26T16:13:30;6.30;;;5.90;;
1593;SDS011;790;47.000;16.084;2023-06-26T16:16:14;5.57;;;5.18;;
1593;SDS011;790;47.000;16.084;2023-06-26T16:18:51;6.13;;;5.63;;
1593;SDS011;790;47.000;16.084;2023-06-26T16:21:20;5.63;;;5.30;;
1593;SDS011;790;47.000;16.084;2023-06-26T16:23:51;8.30;;;5.43;;
1593;SDS011;790;47.000;16.084;2023-06-26T16:29:00;5.93;;;5.53;;
1593;SDS011;790;47.000;16.084;2023-06-26T16:31:38;5.60;;;5.20;;
1593;SDS011;790;47.000;16.084;2023-06-26T16:34:18;5.82;;;5.32;;
1593;SDS011;790;47.000;16.084;2023-06-26T16:36:47;6.35;;;5.75;;
1593;SDS011;790;47.000;16.084;2023-06-26T16:39:21;6.13;;;5.55;;
1593;SDS011;790;47.000;16.084;2023-06-26T16:41:59;5.53;;;5.22;;
1593;SDS011;790;47.000;16.084;2023-06-26T16:44:33;6.05;;;5.63;;
1593;SDS011;790;47.000;16.084;2023-06-26T16:49:57;6.32;;;5.82;;
1593;SDS011;790;47.000;16.084;2023-06-26T16:55:48;6.75;;;6.07;;
1593;SDS011;790;47.000;16.084;2023-06-26T17:01:42;5.45;;;5.15;;
1593;SDS011;790;47.000;16.084;2023-06-26T17:04:13;6.25;;;5.72;;
1593;SDS011;790;47.000;16.084;2023-06-26T17:06:51;6.72;;;6.07;;
1593;SDS011;790;47.000;16.084;2023-06-26T17:09:22;6.22;;;5.78;;
1593;SDS011;790;47.000;16.084;2023-06-26T17:12:03;6.18;;;5.68;;
1593;SDS011;790;47.000;16.084;2023-06-26T17:17:09;6.43;;;5.82;;
1593;SDS011;790;47.000;16.084;2023-06-26T17:19:52;6.07;;;5.57;;
1593;SDS011;790;47.000;16.084;2023-06-26T17:22:24;6.75;;;6.05;;
1593;SDS011;790;47.000;16.084;2023-06-26T17:25:01;6.30;;;5.68;;
1593;SDS011;790;47.000;16.084;2023-06-26T17:27:35;6.65;;;5.57;;
1593;SDS011;790;47.000;16.084;2023-06-26T17:30:05;6.72;;;6.15;;
1593;SDS011;790;47.000;16.084;2023-06-26T17:32:52;6.32;;;5.72;;
1593;SDS011;790;47.000;16.084;2023-06-26T17:35:32;6.47;;;5.97;;
1593;SDS011;790;47.000;16.084;2023-06-26T17:38:09;6.32;;;5.82;;
1593;SDS011;790;47.000;16.084;2023-06-26T17:40:37;6.30;;;5.85;;
1593;SDS011;790;47.000;16.084;2023-06-26T17:43:22;6.50;;;5.90;;
1593;SDS011;790;47.000;16.084;2023-06-26T17:48:23;6.60;;;6.20;;
1593;SDS011;790;47.000;16.084;2023-06-26T17:50:55;6.57;;;6.15;;
1593;SDS011;790;47.000;16.084;2023-06-26T17:53:25;6.68;;;6.18;;
1593;SDS011;790;47.000;16.084;2023-06-26T17:55:52;6.63;;;6.03;;
1593;SDS011;790;47.000;16.084;2023-06-26T17:58:29;6.75;;;6.25;;
1593;SDS011;790;47.000;16.084;2023-06-26T18:00:59;6.57;;;6.07;;
1593;SDS011;790;47.000;16.084;2023-06-26T18:03:45;7.85;;;6.35;;
1593;SDS011;790;47.000;16.084;2023-06-26T18:06:33;6.10;;;5.65;;
1593;SDS011;790;47.000;16.084;2023-06-26T18:09:01;6.90;;;6.22;;
1593;SDS011;790;47.000;16.084;2023-06-26T18:11:30;6.82;;;6.28;;
1593;SDS011;790;47.000;16.084;2023-06-26T18:14:03;6.75;;;6.25;;
1593;SDS011;790;47.000;16.084;2023-06-26T18:16:40;7.25;;;6.65;;
1593;SDS011;790;47.000;16.084;2023-06-26T18:19:22;6.82;;;6.32;;
1593;SDS011;790;47.000;16.084;2023-06-26T18:22:10;6.85;;;6.35;;
1593;SDS011;790;47.000;16.084;2023-06-26T18:24:43;7.13;;;6.53;;
1593;SDS011;790;47.000;16.084;2023-06-26T18:27:25;7.35;;;6.75;;
1593;SDS011;790;47.000;16.084;2023-06-26T18:35:59;7.25;;;6.53;;
1593;SDS011;790;47.000;16.084;2023-06-26T18:38:35;7.38;;;6.72;;
1593;SDS011;790;47.000;16.084;2023-06-26T18:41:02;6.97;;;6.43;;